sensor_id;sensor_type;location;lat;lon;timestamp;temperature;humidity
35920;DHT22;36160;53.370;-6.196;2023-03-21T00:01:49;11.40;99.90
35920;DHT22;36160;53.370;-6.196;2023-03-21T00:04:14;11.40;99.90
35920;DHT22;36160;53.370;-6.196;2023-03-21T00:06:40;11.30;99.90
35920;DHT22;36160;53.370;-6.196;2023-03-21T00:09:06;11.30;99.90
35920;DHT22;36160;53.370;-6.196;2023-03-21T00:11:31;11.30;99.90
35920;DHT22;36160;53.370;-6.196;2023-03-21T00:13:57;11.20;99.90
35920;DHT22;36160;53.370;-6.196;2023-03-21T00:16:26;11.20;99.90
35920;DHT22;36160;53.370;-6.196;2023-03-21T00:18:54;11.20;99.90
35920;DHT22;36160;53.370;-6.196;2023-03-21T00:21:22;11.20;99.90
35920;DHT22;36160;53.370;-6.196;2023-03-21T00:23:53;11.20;99.90
35920;DHT22;36160;53.370;-6.196;2023-03-21T00:26:18;11.20;99.90
35920;DHT22;36160;53.370;-6.196;2023-03-21T00:28:44;11.10;99.90
35920;DHT22;36160;53.370;-6.196;2023-03-21T00:31:10;11.20;99.90
35920;DHT22;36160;53.370;-6.196;2023-03-21T00:33:35;11.10;99.90
35920;DHT22;36160;53.370;-6.196;2023-03-21T00:36:03;11.10;99.90
35920;DHT22;36160;53.370;-6.196;2023-03-21T00:38:28;11.10;99.90
35920;DHT22;36160;53.370;-6.196;2023-03-21T00:40:54;11.10;99.90
35920;DHT22;36160;53.370;-6.196;2023-03-21T00:43:20;11.00;99.90
35920;DHT22;36160;53.370;-6.196;2023-03-21T00:45:48;11.00;99.90
35920;DHT22;36160;53.370;-6.196;2023-03-21T00:48:13;11.00;99.90
35920;DHT22;36160;53.370;-6.196;2023-03-21T00:50:39;10.90;99.90
35920;DHT22;36160;53.370;-6.196;2023-03-21T00:53:06;10.90;99.90
35920;DHT22;36160;53.370;-6.196;2023-03-21T00:55:32;10.90;99.90
35920;DHT22;36160;53.370;-6.196;2023-03-21T00:57:57;10.90;99.90
35920;DHT22;36160;53.370;-6.196;2023-03-21T01:00:23;11.00;99.90
35920;DHT22;36160;53.370;-6.196;2023-03-21T01:02:49;11.00;99.90
35920;DHT22;36160;53.370;-6.196;2023-03-21T01:05:21;11.00;99.90
35920;DHT22;36160;53.370;-6.196;2023-03-21T01:08:07;11.00;99.90
35920;DHT22;36160;53.370;-6.196;2023-03-21T01:10:36;11.00;99.90
35920;DHT22;36160;53.370;-6.196;2023-03-21T01:13:02;10.90;99.90
35920;DHT22;36160;53.370;-6.196;2023-03-21T01:15:28;11.00;99.90
35920;DHT22;36160;53.370;-6.196;2023-03-21T01:17:53;10.90;99.90
35920;DHT22;36160;53.370;-6.196;2023-03-21T01:20:19;10.80;99.90
35920;DHT22;36160;53.370;-6.196;2023-03-21T01:22:44;10.80;99.90
35920;DHT22;36160;53.370;-6.196;2023-03-21T01:25:10;10.80;99.90
35920;DHT22;36160;53.370;-6.196;2023-03-21T01:27:36;10.70;99.90
35920;DHT22;36160;53.370;-6.196;2023-03-21T01:30:02;10.70;99.90
35920;DHT22;36160;53.370;-6.196;2023-03-21T01:32:28;10.60;99.90
35920;DHT22;36160;53.370;-6.196;2023-03-21T01:34:53;10.60;99.90
35920;DHT22;36160;53.370;-6.196;2023-03-21T01:37:19;10.50;99.90
35920;DHT22;36160;53.370;-6.196;2023-03-21T01:39:44;10.50;99.90
35920;DHT22;36160;53.370;-6.196;2023-03-21T01:42:13;10.50;99.90
35920;DHT22;36160;53.370;-6.196;2023-03-21T01:44:58;10.50;99.90
35920;DHT22;36160;53.370;-6.196;2023-03-21T01:47:24;10.50;99.90
35920;DHT22;36160;53.370;-6.196;2023-03-21T01:49:50;10.50;99.90
35920;DHT22;36160;53.370;-6.196;2023-03-21T01:52:19;10.50;99.90
35920;DHT22;36160;53.370;-6.196;2023-03-21T01:54:44;10.50;99.90
35920;DHT22;36160;53.370;-6.196;2023-03-21T01:57:14;10.50;99.90
35920;DHT22;36160;53.370;-6.196;2023-03-21T01:59:45;10.50;99.90
35920;DHT22;36160;53.370;-6.196;2023-03-21T02:02:16;10.50;99.90
35920;DHT22;36160;53.370;-6.196;2023-03-21T02:04:45;10.50;99.90
35920;DHT22;36160;53.370;-6.196;2023-03-21T02:07:15;10.50;99.90
35920;DHT22;36160;53.370;-6.196;2023-03-21T02:09:45;10.50;99.90
35920;DHT22;36160;53.370;-6.196;2023-03-21T02:12:11;10.50;99.90
35920;DHT22;36160;53.370;-6.196;2023-03-21T02:14:37;10.50;99.90
35920;DHT22;36160;53.370;-6.196;2023-03-21T02:19:45;10.60;99.90
35920;DHT22;36160;53.370;-6.196;2023-03-21T02:24:59;10.50;99.90
35920;DHT22;36160;53.370;-6.196;2023-03-21T02:27:33;10.50;99.90
35920;DHT22;36160;53.370;-6.196;2023-03-21T02:30:27;10.40;99.90
35920;DHT22;36160;53.370;-6.196;2023-03-21T02:33:05;10.40;99.90
35920;DHT22;36160;53.370;-6.196;2023-03-21T02:38:16;10.20;99.90
35920;DHT22;36160;53.370;-6.196;2023-03-21T02:41:25;10.30;99.90
35920;DHT22;36160;53.370;-6.196;2023-03-21T02:46:16;10.30;99.90
35920;DHT22;36160;53.370;-6.196;2023-03-21T02:48:53;10.30;99.90
35920;DHT22;36160;53.370;-6.196;2023-03-21T02:51:21;10.30;99.90
35920;DHT22;36160;53.370;-6.196;2023-03-21T02:53:49;10.30;99.90
35920;DHT22;36160;53.370;-6.196;2023-03-21T02:56:15;10.30;99.90
35920;DHT22;36160;53.370;-6.196;2023-03-21T02:58:40;10.30;99.90
35920;DHT22;36160;53.370;-6.196;2023-03-21T03:01:07;10.30;99.90
35920;DHT22;36160;53.370;-6.196;2023-03-21T03:03:33;10.30;99.90
35920;DHT22;36160;53.370;-6.196;2023-03-21T03:06:00;10.30;99.90
35920;DHT22;36160;53.370;-6.196;2023-03-21T03:08:30;10.30;99.90
35920;DHT22;36160;53.370;-6.196;2023-03-21T03:11:02;10.30;99.90
35920;DHT22;36160;53.370;-6.196;2023-03-21T03:16:07;10.10;99.90
35920;DHT22;36160;53.370;-6.196;2023-03-21T03:21:14;10.00;99.90
35920;DHT22;36160;53.370;-6.196;2023-03-21T03:23:47;9.90;99.90
35920;DHT22;36160;53.370;-6.196;2023-03-21T03:26:18;9.90;99.90
35920;DHT22;36160;53.370;-6.196;2023-03-21T03:28:48;9.90;99.90
35920;DHT22;36160;53.370;-6.196;2023-03-21T03:31:15;9.90;99.90
35920;DHT22;36160;53.370;-6.196;2023-03-21T03:33:47;10.00;99.90
35920;DHT22;36160;53.370;-6.196;2023-03-21T03:36:16;9.90;99.90
35920;DHT22;36160;53.370;-6.196;2023-03-21T03:38:43;10.00;99.90
35920;DHT22;36160;53.370;-6.196;2023-03-21T03:41:11;10.10;99.90
35920;DHT22;36160;53.370;-6.196;2023-03-21T03:43:40;10.10;99.90
35920;DHT22;36160;53.370;-6.196;2023-03-21T03:46:12;10.10;99.90
35920;DHT22;36160;53.370;-6.196;2023-03-21T03:48:41;10.10;99.90
35920;DHT22;36160;53.370;-6.196;2023-03-21T03:51:14;10.20;99.90
35920;DHT22;36160;53.370;-6.196;2023-03-21T03:53:54;10.20;99.90
35920;DHT22;36160;53.370;-6.196;2023-03-21T03:56:21;10.20;99.90
35920;DHT22;36160;53.370;-6.196;2023-03-21T03:58:48;10.20;99.90
35920;DHT22;36160;53.370;-6.196;2023-03-21T04:01:13;10.20;99.90
35920;DHT22;36160;53.370;-6.196;2023-03-21T04:03:39;10.20;99.90
35920;DHT22;36160;53.370;-6.196;2023-03-21T04:06:05;10.30;99.90
35920;DHT22;36160;53.370;-6.196;2023-03-21T04:08:31;10.20;99.90
35920;DHT22;36160;53.370;-6.196;2023-03-21T04:10:57;10.20;99.90
35920;DHT22;36160;53.370;-6.196;2023-03-21T04:13:22;10.20;99.90
35920;DHT22;36160;53.370;-6.196;2023-03-21T04:15:48;10.30;99.90
35920;DHT22;36160;53.370;-6.196;2023-03-21T04:18:13;10.30;99.90
35920;DHT22;36160;53.370;-6.196;2023-03-21T04:20:39;10.20;99.90
35920;DHT22;36160;53.370;-6.196;2023-03-21T04:23:04;10.20;99.90
35920;DHT22;36160;53.370;-6.196;2023-03-21T04:25:32;10.20;99.90
35920;DHT22;36160;53.370;-6.196;2023-03-21T04:27:58;10.20;99.90
35920;DHT22;36160;53.370;-6.196;2023-03-21T04:30:23;10.20;99.90
35920;DHT22;36160;53.370;-6.196;2023-03-21T04:32:50;10.20;99.90
35920;DHT22;36160;53.370;-6.196;2023-03-21T04:35:18;10.20;99.90
35920;DHT22;36160;53.370;-6.196;2023-03-21T04:37:44;10.10;99.90
35920;DHT22;36160;53.370;-6.196;2023-03-21T04:40:10;10.00;99.90
35920;DHT22;36160;53.370;-6.196;2023-03-21T04:42:35;10.00;99.90
35920;DHT22;36160;53.370;-6.196;2023-03-21T04:45:01;10.00;99.90
35920;DHT22;36160;53.370;-6.196;2023-03-21T04:47:27;9.90;99.90
35920;DHT22;36160;53.370;-6.196;2023-03-21T04:49:52;9.90;99.90
35920;DHT22;36160;53.370;-6.196;2023-03-21T04:52:18;9.90;99.90
35920;DHT22;36160;53.370;-6.196;2023-03-21T04:54:44;10.00;99.90
35920;DHT22;36160;53.370;-6.196;2023-03-21T04:57:09;10.00;99.90
35920;DHT22;36160;53.370;-6.196;2023-03-21T04:59:35;10.10;99.90
35920;DHT22;36160;53.370;-6.196;2023-03-21T05:02:00;10.10;99.90
35920;DHT22;36160;53.370;-6.196;2023-03-21T05:04:26;10.20;99.90
35920;DHT22;36160;53.370;-6.196;2023-03-21T05:06:52;10.30;99.90
35920;DHT22;36160;53.370;-6.196;2023-03-21T05:09:18;10.30;99.90
35920;DHT22;36160;53.370;-6.196;2023-03-21T05:11:44;10.30;99.90
35920;DHT22;36160;53.370;-6.196;2023-03-21T05:14:11;10.30;99.90
35920;DHT22;36160;53.370;-6.196;2023-03-21T05:16:38;10.30;99.90
35920;DHT22;36160;53.370;-6.196;2023-03-21T05:19:13;10.30;99.90
35920;DHT22;36160;53.370;-6.196;2023-03-21T05:21:39;10.30;99.90
35920;DHT22;36160;53.370;-6.196;2023-03-21T05:24:12;10.30;99.90
35920;DHT22;36160;53.370;-6.196;2023-03-21T05:26:38;10.30;99.90
35920;DHT22;36160;53.370;-6.196;2023-03-21T05:29:04;10.30;99.90
35920;DHT22;36160;53.370;-6.196;2023-03-21T05:31:29;10.30;99.90
35920;DHT22;36160;53.370;-6.196;2023-03-21T05:33:55;10.30;99.90
35920;DHT22;36160;53.370;-6.196;2023-03-21T05:36:20;10.20;99.90
35920;DHT22;36160;53.370;-6.196;2023-03-21T05:38:46;10.20;99.90
35920;DHT22;36160;53.370;-6.196;2023-03-21T05:41:12;10.30;99.90
35920;DHT22;36160;53.370;-6.196;2023-03-21T05:43:38;10.30;99.90
35920;DHT22;36160;53.370;-6.196;2023-03-21T05:46:03;10.30;99.90
35920;DHT22;36160;53.370;-6.196;2023-03-21T05:48:29;10.30;99.90
35920;DHT22;36160;53.370;-6.196;2023-03-21T05:50:55;10.30;99.90
35920;DHT22;36160;53.370;-6.196;2023-03-21T05:53:20;10.40;99.90
35920;DHT22;36160;53.370;-6.196;2023-03-21T05:55:46;10.40;99.90
35920;DHT22;36160;53.370;-6.196;2023-03-21T05:58:12;10.40;99.90
35920;DHT22;36160;53.370;-6.196;2023-03-21T06:00:37;10.40;99.90
35920;DHT22;36160;53.370;-6.196;2023-03-21T06:03:03;10.50;99.90
35920;DHT22;36160;53.370;-6.196;2023-03-21T06:05:28;10.50;99.90
35920;DHT22;36160;53.370;-6.196;2023-03-21T06:07:54;10.50;99.90
35920;DHT22;36160;53.370;-6.196;2023-03-21T06:10:19;10.60;99.90
35920;DHT22;36160;53.370;-6.196;2023-03-21T06:12:45;10.60;99.90
35920;DHT22;36160;53.370;-6.196;2023-03-21T06:15:11;10.60;99.90
35920;DHT22;36160;53.370;-6.196;2023-03-21T06:17:36;10.70;99.90
35920;DHT22;36160;53.370;-6.196;2023-03-21T06:20:02;10.60;99.90
35920;DHT22;36160;53.370;-6.196;2023-03-21T06:22:32;10.60;99.90
35920;DHT22;36160;53.370;-6.196;2023-03-21T06:24:57;10.70;99.90
35920;DHT22;36160;53.370;-6.196;2023-03-21T06:27:23;10.70;99.90
35920;DHT22;36160;53.370;-6.196;2023-03-21T06:29:48;10.70;99.90
35920;DHT22;36160;53.370;-6.196;2023-03-21T06:32:14;10.70;99.90
35920;DHT22;36160;53.370;-6.196;2023-03-21T06:34:40;10.70;99.90
35920;DHT22;36160;53.370;-6.196;2023-03-21T06:37:06;10.70;99.90
35920;DHT22;36160;53.370;-6.196;2023-03-21T06:39:31;10.70;99.90
35920;DHT22;36160;53.370;-6.196;2023-03-21T06:41:57;10.60;99.90
35920;DHT22;36160;53.370;-6.196;2023-03-21T06:44:23;10.60;99.90
35920;DHT22;36160;53.370;-6.196;2023-03-21T06:46:49;10.70;99.90
35920;DHT22;36160;53.370;-6.196;2023-03-21T06:49:14;10.60;99.90
35920;DHT22;36160;53.370;-6.196;2023-03-21T06:51:40;10.60;99.90
35920;DHT22;36160;53.370;-6.196;2023-03-21T06:54:05;10.50;99.90
35920;DHT22;36160;53.370;-6.196;2023-03-21T06:56:31;10.50;99.90
35920;DHT22;36160;53.370;-6.196;2023-03-21T06:58:56;10.50;99.90
35920;DHT22;36160;53.370;-6.196;2023-03-21T07:01:22;10.50;99.90
35920;DHT22;36160;53.370;-6.196;2023-03-21T07:03:48;10.50;99.90
35920;DHT22;36160;53.370;-6.196;2023-03-21T07:06:14;10.50;99.90
35920;DHT22;36160;53.370;-6.196;2023-03-21T07:08:40;10.50;99.90
35920;DHT22;36160;53.370;-6.196;2023-03-21T07:11:06;10.50;99.90
35920;DHT22;36160;53.370;-6.196;2023-03-21T07:13:32;10.40;99.90
35920;DHT22;36160;53.370;-6.196;2023-03-21T07:15:58;10.50;99.90
35920;DHT22;36160;53.370;-6.196;2023-03-21T07:18:24;10.50;99.90
35920;DHT22;36160;53.370;-6.196;2023-03-21T07:20:49;10.50;99.90
35920;DHT22;36160;53.370;-6.196;2023-03-21T07:23:16;10.50;99.90
35920;DHT22;36160;53.370;-6.196;2023-03-21T07:25:41;10.60;99.90
35920;DHT22;36160;53.370;-6.196;2023-03-21T07:28:07;10.60;99.90
35920;DHT22;36160;53.370;-6.196;2023-03-21T07:30:33;10.70;99.90
35920;DHT22;36160;53.370;-6.196;2023-03-21T07:32:59;10.70;99.90
35920;DHT22;36160;53.370;-6.196;2023-03-21T07:35:25;10.70;99.90
35920;DHT22;36160;53.370;-6.196;2023-03-21T07:37:50;10.70;99.90
35920;DHT22;36160;53.370;-6.196;2023-03-21T07:40:16;10.90;99.90
35920;DHT22;36160;53.370;-6.196;2023-03-21T07:42:42;10.80;99.90
35920;DHT22;36160;53.370;-6.196;2023-03-21T07:45:08;10.90;99.90
35920;DHT22;36160;53.370;-6.196;2023-03-21T07:47:34;10.90;99.90
35920;DHT22;36160;53.370;-6.196;2023-03-21T07:49:59;10.80;99.90
35920;DHT22;36160;53.370;-6.196;2023-03-21T07:52:25;10.80;99.90
35920;DHT22;36160;53.370;-6.196;2023-03-21T07:54:50;10.90;99.90
35920;DHT22;36160;53.370;-6.196;2023-03-21T07:57:16;10.80;99.90
35920;DHT22;36160;53.370;-6.196;2023-03-21T07:59:42;10.80;99.90
35920;DHT22;36160;53.370;-6.196;2023-03-21T08:02:14;10.70;99.90
35920;DHT22;36160;53.370;-6.196;2023-03-21T08:04:40;10.70;99.90
35920;DHT22;36160;53.370;-6.196;2023-03-21T08:07:05;10.80;99.90
35920;DHT22;36160;53.370;-6.196;2023-03-21T08:09:31;10.70;99.90
35920;DHT22;36160;53.370;-6.196;2023-03-21T08:11:57;10.70;99.90
35920;DHT22;36160;53.370;-6.196;2023-03-21T08:14:22;10.70;99.90
35920;DHT22;36160;53.370;-6.196;2023-03-21T08:16:48;10.60;99.90
35920;DHT22;36160;53.370;-6.196;2023-03-21T08:19:13;10.60;99.90
35920;DHT22;36160;53.370;-6.196;2023-03-21T08:21:40;10.60;99.90
35920;DHT22;36160;53.370;-6.196;2023-03-21T08:24:05;10.50;99.90
35920;DHT22;36160;53.370;-6.196;2023-03-21T08:26:31;10.60;99.90
35920;DHT22;36160;53.370;-6.196;2023-03-21T08:28:57;10.60;99.90
35920;DHT22;36160;53.370;-6.196;2023-03-21T08:31:23;10.70;99.90
35920;DHT22;36160;53.370;-6.196;2023-03-21T08:33:48;10.80;99.90
35920;DHT22;36160;53.370;-6.196;2023-03-21T08:36:19;11.00;99.90
35920;DHT22;36160;53.370;-6.196;2023-03-21T08:38:45;11.00;99.90
35920;DHT22;36160;53.370;-6.196;2023-03-21T08:41:15;11.00;99.90
35920;DHT22;36160;53.370;-6.196;2023-03-21T08:43:40;11.00;99.90
35920;DHT22;36160;53.370;-6.196;2023-03-21T08:46:06;11.10;99.90
35920;DHT22;36160;53.370;-6.196;2023-03-21T08:48:32;11.00;99.90
35920;DHT22;36160;53.370;-6.196;2023-03-21T08:51:00;11.10;99.90
35920;DHT22;36160;53.370;-6.196;2023-03-21T08:53:25;11.10;99.90
35920;DHT22;36160;53.370;-6.196;2023-03-21T08:55:51;11.10;99.90
35920;DHT22;36160;53.370;-6.196;2023-03-21T08:58:17;11.20;99.90
35920;DHT22;36160;53.370;-6.196;2023-03-21T09:00:42;11.20;99.90
35920;DHT22;36160;53.370;-6.196;2023-03-21T09:03:08;11.20;99.90
35920;DHT22;36160;53.370;-6.196;2023-03-21T09:05:33;11.20;99.90
35920;DHT22;36160;53.370;-6.196;2023-03-21T09:08:01;11.30;99.90
35920;DHT22;36160;53.370;-6.196;2023-03-21T09:10:27;11.60;99.90
35920;DHT22;36160;53.370;-6.196;2023-03-21T09:12:53;11.70;99.90
35920;DHT22;36160;53.370;-6.196;2023-03-21T09:15:20;11.80;99.90
35920;DHT22;36160;53.370;-6.196;2023-03-21T09:17:48;11.70;99.90
35920;DHT22;36160;53.370;-6.196;2023-03-21T09:20:17;11.80;99.90
35920;DHT22;36160;53.370;-6.196;2023-03-21T09:22:45;11.80;99.90
35920;DHT22;36160;53.370;-6.196;2023-03-21T09:25:12;12.00;99.90
35920;DHT22;36160;53.370;-6.196;2023-03-21T09:27:38;12.00;99.90
35920;DHT22;36160;53.370;-6.196;2023-03-21T09:30:04;12.10;99.90
35920;DHT22;36160;53.370;-6.196;2023-03-21T09:32:31;12.10;99.90
35920;DHT22;36160;53.370;-6.196;2023-03-21T09:34:58;12.20;99.90
35920;DHT22;36160;53.370;-6.196;2023-03-21T09:37:23;12.30;99.90
35920;DHT22;36160;53.370;-6.196;2023-03-21T09:39:50;12.50;99.90
35920;DHT22;36160;53.370;-6.196;2023-03-21T09:47:30;12.60;99.90
35920;DHT22;36160;53.370;-6.196;2023-03-21T09:50:44;12.70;99.90
35920;DHT22;36160;53.370;-6.196;2023-03-21T09:52:56;12.70;99.90
35920;DHT22;36160;53.370;-6.196;2023-03-21T10:01:38;12.90;99.90
35920;DHT22;36160;53.370;-6.196;2023-03-21T10:03:53;12.90;99.90
35920;DHT22;36160;53.370;-6.196;2023-03-21T10:06:19;13.00;99.90
35920;DHT22;36160;53.370;-6.196;2023-03-21T10:08:53;13.00;81.40
35920;DHT22;36160;53.370;-6.196;2023-03-21T10:11:22;12.90;73.50
35920;DHT22;36160;53.370;-6.196;2023-03-21T10:13:55;13.10;15.90
35920;DHT22;36160;53.370;-6.196;2023-03-21T10:16:31;13.20;1.00
35920;DHT22;36160;53.370;-6.196;2023-03-21T10:19:02;13.20;1.00
35920;DHT22;36160;53.370;-6.196;2023-03-21T10:21:28;13.00;1.00
35920;DHT22;36160;53.370;-6.196;2023-03-21T10:23:54;13.00;99.90
35920;DHT22;36160;53.370;-6.196;2023-03-21T10:26:23;13.30;22.10
35920;DHT22;36160;53.370;-6.196;2023-03-21T10:28:50;13.30;1.00
35920;DHT22;36160;53.370;-6.196;2023-03-21T10:31:17;13.40;1.00
35920;DHT22;36160;53.370;-6.196;2023-03-21T10:33:45;13.50;99.90
35920;DHT22;36160;53.370;-6.196;2023-03-21T10:36:16;13.60;99.90
35920;DHT22;36160;53.370;-6.196;2023-03-21T10:38:45;13.80;99.90
35920;DHT22;36160;53.370;-6.196;2023-03-21T10:41:11;13.80;99.90
35920;DHT22;36160;53.370;-6.196;2023-03-21T10:43:37;14.00;99.90
35920;DHT22;36160;53.370;-6.196;2023-03-21T10:48:37;14.10;99.90
35920;DHT22;36160;53.370;-6.196;2023-03-21T10:51:04;14.20;99.90
35920;DHT22;36160;53.370;-6.196;2023-03-21T10:53:31;14.10;99.90
35920;DHT22;36160;53.370;-6.196;2023-03-21T10:55:59;14.00;99.90
35920;DHT22;36160;53.370;-6.196;2023-03-21T10:58:28;13.80;99.90
35920;DHT22;36160;53.370;-6.196;2023-03-21T11:00:55;13.60;99.90
35920;DHT22;36160;53.370;-6.196;2023-03-21T11:03:23;13.60;99.90
35920;DHT22;36160;53.370;-6.196;2023-03-21T11:05:54;13.60;99.90
35920;DHT22;36160;53.370;-6.196;2023-03-21T11:08:21;13.60;99.90
35920;DHT22;36160;53.370;-6.196;2023-03-21T11:10:50;13.80;99.90
35920;DHT22;36160;53.370;-6.196;2023-03-21T11:13:17;14.00;99.90
35920;DHT22;36160;53.370;-6.196;2023-03-21T11:18:15;14.00;29.30
35920;DHT22;36160;53.370;-6.196;2023-03-21T11:20:46;14.10;91.80
35920;DHT22;36160;53.370;-6.196;2023-03-21T11:23:12;14.00;79.80
35920;DHT22;36160;53.370;-6.196;2023-03-21T11:25:39;13.80;1.00
35920;DHT22;36160;53.370;-6.196;2023-03-21T11:28:08;13.70;94.10
35920;DHT22;36160;53.370;-6.196;2023-03-21T11:30:33;13.60;99.90
35920;DHT22;36160;53.370;-6.196;2023-03-21T11:33:00;13.60;99.90
35920;DHT22;36160;53.370;-6.196;2023-03-21T11:35:31;13.80;99.90
35920;DHT22;36160;53.370;-6.196;2023-03-21T11:37:57;14.00;99.90
35920;DHT22;36160;53.370;-6.196;2023-03-21T11:40:24;14.10;1.00
35920;DHT22;36160;53.370;-6.196;2023-03-21T11:42:54;14.10;99.90
35920;DHT22;36160;53.370;-6.196;2023-03-21T11:47:46;14.10;55.20
35920;DHT22;36160;53.370;-6.196;2023-03-21T11:50:15;14.20;99.90
35920;DHT22;36160;53.370;-6.196;2023-03-21T11:52:42;14.20;1.00
35920;DHT22;36160;53.370;-6.196;2023-03-21T12:05:27;14.00;99.90
35920;DHT22;36160;53.370;-6.196;2023-03-21T12:26:05;14.30;99.90
35920;DHT22;36160;53.370;-6.196;2023-03-21T12:28:34;14.40;99.90
35920;DHT22;36160;53.370;-6.196;2023-03-21T12:31:16;14.40;38.10
35920;DHT22;36160;53.370;-6.196;2023-03-21T12:36:19;14.30;99.90
35920;DHT22;36160;53.370;-6.196;2023-03-21T12:41:38;14.30;99.90
35920;DHT22;36160;53.370;-6.196;2023-03-21T12:44:09;14.20;99.90
35920;DHT22;36160;53.370;-6.196;2023-03-21T12:46:37;13.90;99.90
35920;DHT22;36160;53.370;-6.196;2023-03-21T12:51:32;14.10;70.40
35920;DHT22;36160;53.370;-6.196;2023-03-21T12:54:33;14.10;99.90
35920;DHT22;36160;53.370;-6.196;2023-03-21T12:56:53;14.00;99.90
35920;DHT22;36160;53.370;-6.196;2023-03-21T13:02:04;14.20;99.90
35920;DHT22;36160;53.370;-6.196;2023-03-21T13:04:39;14.30;99.90
35920;DHT22;36160;53.370;-6.196;2023-03-21T13:07:07;14.60;99.90
35920;DHT22;36160;53.370;-6.196;2023-03-21T13:09:34;14.60;99.90
35920;DHT22;36160;53.370;-6.196;2023-03-21T13:12:04;14.70;99.90
35920;DHT22;36160;53.370;-6.196;2023-03-21T13:14:33;14.60;70.90
35920;DHT22;36160;53.370;-6.196;2023-03-21T13:17:05;14.60;1.00
35920;DHT22;36160;53.370;-6.196;2023-03-21T13:19:40;14.30;99.90
35920;DHT22;36160;53.370;-6.196;2023-03-21T13:22:15;14.30;99.90
35920;DHT22;36160;53.370;-6.196;2023-03-21T13:24:47;14.40;99.90
35920;DHT22;36160;53.370;-6.196;2023-03-21T13:29:49;14.50;35.00
35920;DHT22;36160;53.370;-6.196;2023-03-21T13:32:21;14.50;20.20
35920;DHT22;36160;53.370;-6.196;2023-03-21T13:35:33;14.50;99.90
35920;DHT22;36160;53.370;-6.196;2023-03-21T13:37:34;14.50;99.90
35920;DHT22;36160;53.370;-6.196;2023-03-21T13:40:06;14.40;99.90
35920;DHT22;36160;53.370;-6.196;2023-03-21T13:42:43;14.50;99.90
35920;DHT22;36160;53.370;-6.196;2023-03-21T13:45:20;14.50;99.90
35920;DHT22;36160;53.370;-6.196;2023-03-21T13:47:52;14.50;99.90
35920;DHT22;36160;53.370;-6.196;2023-03-21T13:50:25;14.60;99.90
35920;DHT22;36160;53.370;-6.196;2023-03-21T13:55:27;14.60;99.90
35920;DHT22;36160;53.370;-6.196;2023-03-21T13:57:53;14.50;99.90
35920;DHT22;36160;53.370;-6.196;2023-03-21T14:00:28;14.60;99.90
35920;DHT22;36160;53.370;-6.196;2023-03-21T14:02:58;14.70;99.90
35920;DHT22;36160;53.370;-6.196;2023-03-21T14:05:25;14.70;99.90
35920;DHT22;36160;53.370;-6.196;2023-03-21T14:07:57;14.60;99.90
35920;DHT22;36160;53.370;-6.196;2023-03-21T14:10:34;14.70;99.90
35920;DHT22;36160;53.370;-6.196;2023-03-21T14:13:02;14.60;99.90
35920;DHT22;36160;53.370;-6.196;2023-03-21T14:15:36;14.70;99.90
35920;DHT22;36160;53.370;-6.196;2023-03-21T14:20:30;14.80;99.90
35920;DHT22;36160;53.370;-6.196;2023-03-21T14:22:56;14.70;99.90
35920;DHT22;36160;53.370;-6.196;2023-03-21T14:25:22;14.60;99.90
35920;DHT22;36160;53.370;-6.196;2023-03-21T14:27:53;14.50;99.90
35920;DHT22;36160;53.370;-6.196;2023-03-21T14:30:31;14.40;99.90
35920;DHT22;36160;53.370;-6.196;2023-03-21T14:32:57;14.50;99.90
35920;DHT22;36160;53.370;-6.196;2023-03-21T14:35:24;14.50;99.90
35920;DHT22;36160;53.370;-6.196;2023-03-21T14:37:50;14.50;99.90
35920;DHT22;36160;53.370;-6.196;2023-03-21T14:42:48;14.50;99.90
35920;DHT22;36160;53.370;-6.196;2023-03-21T14:45:15;14.50;99.90
35920;DHT22;36160;53.370;-6.196;2023-03-21T14:47:41;14.20;99.90
35920;DHT22;36160;53.370;-6.196;2023-03-21T14:50:18;14.20;99.90
35920;DHT22;36160;53.370;-6.196;2023-03-21T14:52:43;14.00;99.90
35920;DHT22;36160;53.370;-6.196;2023-03-21T14:55:11;14.00;99.90
35920;DHT22;36160;53.370;-6.196;2023-03-21T14:57:38;13.90;99.90
35920;DHT22;36160;53.370;-6.196;2023-03-21T15:00:04;13.80;99.90
35920;DHT22;36160;53.370;-6.196;2023-03-21T15:02:37;13.70;99.90
35920;DHT22;36160;53.370;-6.196;2023-03-21T15:07:54;13.60;99.90
35920;DHT22;36160;53.370;-6.196;2023-03-21T15:10:21;13.50;99.90
35920;DHT22;36160;53.370;-6.196;2023-03-21T15:12:54;13.40;99.90
35920;DHT22;36160;53.370;-6.196;2023-03-21T15:15:20;13.40;99.90
35920;DHT22;36160;53.370;-6.196;2023-03-21T15:17:47;13.20;99.90
35920;DHT22;36160;53.370;-6.196;2023-03-21T15:20:14;13.20;99.90
35920;DHT22;36160;53.370;-6.196;2023-03-21T15:22:41;13.20;99.90
35920;DHT22;36160;53.370;-6.196;2023-03-21T15:25:10;13.20;99.90
35920;DHT22;36160;53.370;-6.196;2023-03-21T15:27:39;13.20;19.70
35920;DHT22;36160;53.370;-6.196;2023-03-21T15:30:05;13.20;99.90
35920;DHT22;36160;53.370;-6.196;2023-03-21T15:32:31;13.20;99.90
35920;DHT22;36160;53.370;-6.196;2023-03-21T15:35:07;13.20;36.10
35920;DHT22;36160;53.370;-6.196;2023-03-21T15:37:37;13.20;1.00
35920;DHT22;36160;53.370;-6.196;2023-03-21T15:40:24;13.10;1.00
35920;DHT22;36160;53.370;-6.196;2023-03-21T15:42:50;13.20;34.00
35920;DHT22;36160;53.370;-6.196;2023-03-21T15:45:20;13.20;99.90
35920;DHT22;36160;53.370;-6.196;2023-03-21T15:50:20;13.20;99.90
35920;DHT22;36160;53.370;-6.196;2023-03-21T15:52:47;13.10;99.90
35920;DHT22;36160;53.370;-6.196;2023-03-21T15:55:18;13.00;1.00
35920;DHT22;36160;53.370;-6.196;2023-03-21T16:02:37;12.90;99.90
35920;DHT22;36160;53.370;-6.196;2023-03-21T16:05:21;12.80;99.90
35920;DHT22;36160;53.370;-6.196;2023-03-21T16:07:48;12.80;99.90
35920;DHT22;36160;53.370;-6.196;2023-03-21T16:10:30;12.80;99.90
35920;DHT22;36160;53.370;-6.196;2023-03-21T16:12:56;12.80;99.90
35920;DHT22;36160;53.370;-6.196;2023-03-21T16:15:23;12.60;99.90
35920;DHT22;36160;53.370;-6.196;2023-03-21T16:17:56;12.60;99.90
35920;DHT22;36160;53.370;-6.196;2023-03-21T16:20:26;12.60;99.90
35920;DHT22;36160;53.370;-6.196;2023-03-21T16:22:52;12.60;99.90
35920;DHT22;36160;53.370;-6.196;2023-03-21T16:25:18;12.70;99.90
35920;DHT22;36160;53.370;-6.196;2023-03-21T16:27:44;12.60;99.90
35920;DHT22;36160;53.370;-6.196;2023-03-21T16:30:11;12.50;99.90
35920;DHT22;36160;53.370;-6.196;2023-03-21T16:32:36;12.40;99.90
35920;DHT22;36160;53.370;-6.196;2023-03-21T16:35:02;12.40;99.90
35920;DHT22;36160;53.370;-6.196;2023-03-21T16:37:28;12.30;99.90
35920;DHT22;36160;53.370;-6.196;2023-03-21T16:39:53;12.30;99.90
35920;DHT22;36160;53.370;-6.196;2023-03-21T16:42:19;12.30;99.90
35920;DHT22;36160;53.370;-6.196;2023-03-21T16:44:45;12.20;99.90
35920;DHT22;36160;53.370;-6.196;2023-03-21T16:47:14;12.20;99.90
35920;DHT22;36160;53.370;-6.196;2023-03-21T16:49:41;12.10;99.90
35920;DHT22;36160;53.370;-6.196;2023-03-21T16:52:07;12.10;99.90
35920;DHT22;36160;53.370;-6.196;2023-03-21T16:54:34;12.00;99.90
35920;DHT22;36160;53.370;-6.196;2023-03-21T16:56:59;12.10;99.90